createdAt,value
2023-04-02T00:00:10.836Z,61.13
2023-04-02T00:01:22.776Z,60.64
2023-04-02T00:02:24.276Z,60.89
2023-04-02T00:03:26.192Z,60.19
2023-04-02T00:04:30.105Z,60.79
2023-04-02T00:05:56.180Z,60.58
2023-04-02T00:07:30.652Z,60.31
2023-04-02T00:08:41.258Z,60.55
2023-04-02T00:09:42.920Z,60.89
2023-04-02T00:11:02.713Z,60.41
2023-04-02T00:12:18.592Z,60.17
2023-04-02T00:13:29.218Z,61.37
2023-04-02T00:14:31.869Z,60.71
2023-04-02T00:15:34.217Z,60.81
2023-04-02T00:16:36.389Z,60.72
2023-04-02T00:17:37.982Z,60.83
2023-04-02T00:18:43.312Z,61.10
2023-04-02T00:19:50.496Z,61.24
2023-04-02T00:21:00.496Z,61.07
2023-04-02T00:22:02.262Z,60.46
2023-04-02T00:23:04.139Z,60.39
2023-04-02T00:24:15.616Z,60.56
2023-04-02T00:25:17.285Z,60.37
2023-04-02T00:26:35.057Z,60.86
2023-04-02T00:27:36.592Z,60.54
2023-04-02T00:28:38.089Z,60.46
2023-04-02T00:29:50.636Z,60.19
2023-04-02T00:30:54.342Z,60.30
2023-04-02T00:31:55.924Z,60.59
2023-04-02T00:32:57.849Z,61.34
2023-04-02T00:34:03.854Z,61.05
2023-04-02T00:35:21.017Z,59.99
2023-04-02T00:36:22.568Z,60.25
2023-04-02T00:37:28.331Z,61.25
2023-04-02T00:38:31.729Z,61.49
2023-04-02T00:39:44.210Z,61.93
2023-04-02T00:40:45.746Z,62.19
2023-04-02T00:41:47.290Z,62.41
2023-04-02T00:42:49.230Z,62.66
2023-04-02T00:43:50.857Z,62.76
2023-04-02T00:44:54.659Z,62.19
2023-04-02T00:46:01.399Z,62.27
2023-04-02T00:47:09.359Z,61.92
2023-04-02T00:48:36.647Z,61.36
2023-04-02T00:49:39.441Z,61.30
2023-04-02T00:50:41.427Z,60.96
2023-04-02T00:51:46.967Z,61.27
2023-04-02T00:52:49.460Z,60.78
2023-04-02T00:53:52.570Z,61.09
2023-04-02T00:55:03.631Z,61.27
2023-04-02T00:56:05.601Z,61.49
2023-04-02T00:57:23.360Z,61.51
2023-04-02T00:58:30.035Z,61.25
2023-04-02T00:59:36.822Z,62.00
2023-04-02T01:00:38.402Z,61.83
2023-04-02T01:01:42.736Z,62.26
2023-04-02T01:02:44.704Z,61.87
2023-04-02T01:03:54.068Z,62.03
2023-04-02T01:05:00.393Z,61.69
2023-04-02T01:06:15.737Z,61.70
2023-04-02T01:07:17.304Z,61.74
2023-04-02T01:08:32.073Z,61.63
2023-04-02T01:10:11.434Z,60.82
2023-04-02T01:11:29.069Z,62.04
2023-04-02T01:12:46.233Z,62.10
2023-04-02T01:13:58.012Z,61.78
2023-04-02T01:15:19.929Z,61.07
2023-04-02T01:16:30.092Z,60.69
2023-04-02T01:17:50.189Z,61.13
2023-04-02T01:19:06.669Z,61.30
2023-04-02T01:20:34.344Z,61.04
2023-04-02T01:21:43.929Z,60.65
2023-04-02T01:22:59.612Z,61.40
2023-04-02T01:24:14.063Z,61.13
2023-04-02T01:25:19.024Z,60.64
2023-04-02T01:26:23.957Z,60.79
2023-04-02T01:27:39.743Z,61.03
2023-04-02T01:29:03.893Z,61.82
2023-04-02T01:30:07.324Z,61.55
2023-04-02T01:31:08.822Z,61.97
2023-04-02T01:32:11.721Z,61.87
2023-04-02T01:33:13.246Z,61.50
2023-04-02T01:34:17.672Z,61.96
2023-04-02T01:35:19.453Z,62.05
2023-04-02T01:36:53.072Z,61.80
2023-04-02T01:37:59.346Z,60.77
2023-04-02T01:39:10.070Z,60.44
2023-04-02T01:40:30.445Z,61.47
2023-04-02T01:41:36.473Z,61.92
2023-04-02T01:42:39.899Z,61.25
2023-04-02T01:43:47.733Z,62.04
2023-04-02T01:45:03.458Z,62.22
2023-04-02T01:46:06.757Z,62.00
2023-04-02T01:47:11.546Z,62.64
2023-04-02T01:48:14.826Z,62.25
2023-04-02T01:49:19.592Z,62.06
2023-04-02T01:50:31.592Z,61.62
2023-04-02T01:51:33.932Z,61.53
2023-04-02T01:52:38.606Z,61.51
2023-04-02T01:53:40.269Z,61.72
2023-04-02T01:54:42.127Z,61.72
2023-04-02T01:55:46.109Z,62.13
2023-04-02T01:56:47.774Z,61.68
2023-04-02T01:57:51.241Z,61.40
2023-04-02T01:58:52.782Z,61.41
2023-04-02T01:59:55.157Z,61.12
2023-04-02T02:01:03.751Z,60.84
2023-04-02T02:02:07.154Z,61.41
2023-04-02T02:03:10.770Z,61.38
2023-04-02T02:04:12.922Z,61.46
2023-04-02T02:05:16.362Z,61.05
2023-04-02T02:06:18.341Z,60.83
2023-04-02T02:07:20.610Z,61.36
2023-04-02T02:08:37.803Z,60.94
2023-04-02T02:09:39.960Z,60.64
2023-04-02T02:10:50.967Z,60.27
2023-04-02T02:11:52.552Z,60.74
2023-04-02T02:12:54.388Z,60.86
2023-04-02T02:13:58.723Z,61.22
2023-04-02T02:15:00.778Z,61.19
2023-04-02T02:16:03.406Z,61.45
2023-04-02T02:17:05.036Z,61.43
2023-04-02T02:18:08.760Z,61.64
2023-04-02T02:19:29.258Z,60.41
2023-04-02T02:20:30.805Z,61.04
2023-04-02T02:21:46.130Z,61.59
2023-04-02T02:22:48.378Z,60.91
2023-04-02T02:23:49.917Z,60.63
2023-04-02T02:24:51.766Z,60.88
2023-04-02T02:25:53.290Z,60.93
2023-04-02T02:27:21.359Z,61.59
2023-04-02T02:28:26.051Z,61.40
2023-04-02T02:29:27.589Z,61.71
2023-04-02T02:30:39.270Z,62.22
2023-04-02T02:31:41.928Z,61.74
2023-04-02T02:32:52.076Z,61.71
2023-04-02T02:34:02.766Z,60.70
2023-04-02T02:35:11.266Z,60.98
2023-04-02T02:36:29.388Z,61.08
2023-04-02T02:37:33.626Z,61.30
2023-04-02T02:38:35.029Z,61.03
2023-04-02T02:39:42.043Z,61.62
2023-04-02T02:40:44.095Z,62.01
2023-04-02T02:42:04.333Z,61.11
2023-04-02T02:43:06.299Z,60.95
2023-04-02T02:44:11.216Z,61.90
2023-04-02T02:45:15.494Z,61.32
2023-04-02T02:46:18.232Z,61.76
2023-04-02T02:47:22.610Z,61.39
2023-04-02T02:48:34.364Z,62.03
2023-04-02T02:49:39.519Z,61.58
2023-04-02T02:50:41.711Z,61.69
2023-04-02T02:51:49.201Z,61.85
2023-04-02T02:52:54.989Z,61.28
2023-04-02T02:54:00.525Z,61.24
2023-04-02T02:55:09.650Z,61.51
2023-04-02T02:56:12.609Z,60.39
2023-04-02T02:57:17.115Z,60.96
2023-04-02T02:58:23.111Z,60.40
2023-04-02T02:59:24.620Z,61.28
2023-04-02T03:00:26.454Z,61.50
2023-04-02T03:01:29.395Z,62.11
2023-04-02T03:02:31.006Z,62.11
2023-04-02T03:03:32.915Z,61.52
2023-04-02T03:04:37.224Z,61.25
2023-04-02T03:05:38.697Z,61.97
2023-04-02T03:06:40.670Z,62.08
2023-04-02T03:07:42.194Z,61.69
2023-04-02T03:08:45.528Z,62.25
2023-04-02T03:09:57.529Z,61.96
2023-04-02T03:11:03.201Z,61.56
2023-04-02T03:12:37.026Z,61.66
2023-04-02T03:13:38.887Z,61.72
2023-04-02T03:14:44.347Z,61.93
2023-04-02T03:16:05.795Z,61.57
2023-04-02T03:17:13.110Z,61.80
2023-04-02T03:18:23.138Z,61.41
2023-04-02T03:19:30.309Z,61.46
2023-04-02T03:20:45.727Z,61.71
2023-04-02T03:22:12.566Z,62.01
2023-04-02T03:23:23.670Z,61.29
2023-04-02T03:24:32.458Z,61.88
2023-04-02T03:25:42.409Z,61.71
2023-04-02T03:27:05.262Z,60.64
2023-04-02T03:28:11.253Z,61.28
2023-04-02T03:29:16.746Z,60.91
2023-04-02T03:30:27.130Z,61.74
2023-04-02T03:31:37.297Z,61.04
2023-04-02T03:32:39.171Z,61.61
2023-04-02T03:33:43.917Z,61.88
2023-04-02T03:34:51.576Z,61.79
2023-04-02T03:36:07.975Z,61.36
2023-04-02T03:37:23.062Z,61.82
2023-04-02T03:38:27.621Z,61.41
2023-04-02T03:39:51.082Z,61.25
2023-04-02T03:41:02.219Z,61.22
2023-04-02T03:42:10.061Z,61.53
2023-04-02T03:43:22.798Z,61.56
2023-04-02T03:44:34.604Z,61.20
2023-04-02T03:45:38.216Z,60.96
2023-04-02T03:46:42.188Z,62.02
2023-04-02T03:48:32.933Z,61.61
2023-04-02T03:49:40.690Z,61.57
2023-04-02T03:51:05.647Z,61.42
2023-04-02T03:52:28.990Z,60.77
2023-04-02T03:53:32.482Z,61.13
2023-04-02T03:54:34.038Z,61.44
2023-04-02T03:55:37.489Z,61.32
2023-04-02T03:56:40.039Z,62.38
2023-04-02T03:58:00.764Z,62.20
2023-04-02T03:59:09.608Z,61.97
2023-04-02T04:00:23.755Z,63.20
2023-04-02T04:01:32.336Z,63.25
2023-04-02T04:02:35.021Z,62.73
2023-04-02T04:03:36.504Z,62.73
2023-04-02T04:04:40.090Z,63.02
2023-04-02T04:06:01.735Z,62.68
2023-04-02T04:07:03.323Z,62.67
2023-04-02T04:08:12.592Z,61.92
2023-04-02T04:09:30.031Z,62.99
2023-04-02T04:10:31.819Z,62.04
2023-04-02T04:11:35.329Z,62.34
2023-04-02T04:12:40.517Z,62.37
2023-04-02T04:13:50.473Z,62.88
2023-04-02T04:15:16.832Z,61.87
2023-04-02T04:16:21.894Z,61.86
2023-04-02T04:17:35.525Z,61.80
2023-04-02T04:18:43.742Z,61.77
2023-04-02T04:20:07.786Z,62.86
2023-04-02T04:21:30.849Z,62.26
2023-04-02T04:22:34.009Z,62.70
2023-04-02T04:23:36.973Z,62.78
2023-04-02T04:24:39.451Z,63.05
2023-04-02T04:25:40.960Z,62.71
2023-04-02T04:26:53.909Z,62.99
2023-04-02T04:28:13.582Z,62.76
2023-04-02T04:29:38.168Z,61.89
2023-04-02T04:31:00.116Z,62.58
2023-04-02T04:32:33.783Z,61.81
2023-04-02T04:33:40.716Z,62.07
2023-04-02T04:34:53.570Z,62.05
2023-04-02T04:35:56.785Z,62.66
2023-04-02T04:37:01.828Z,61.10
2023-04-02T04:38:15.609Z,62.18
2023-04-02T04:39:21.463Z,62.39
2023-04-02T04:40:24.126Z,62.83
2023-04-02T04:41:31.050Z,62.28
2023-04-02T04:42:33.975Z,62.45
2023-04-02T04:43:54.173Z,61.58
2023-04-02T04:45:02.566Z,61.82
2023-04-02T04:46:06.707Z,62.45
2023-04-02T04:47:11.008Z,62.44
2023-04-02T04:48:20.984Z,62.38
2023-04-02T04:49:34.067Z,61.87
2023-04-02T04:50:39.026Z,62.18
2023-04-02T04:52:01.083Z,62.07
2023-04-02T04:53:07.165Z,62.21
2023-04-02T04:54:15.398Z,62.65
2023-04-02T04:55:35.528Z,62.19
2023-04-02T04:56:37.540Z,61.72
2023-04-02T04:57:39.031Z,61.87
2023-04-02T04:59:02.104Z,62.83
2023-04-02T05:00:17.403Z,61.62
2023-04-02T05:01:22.635Z,61.84
2023-04-02T05:02:26.799Z,62.38
2023-04-02T05:03:38.300Z,61.68
2023-04-02T05:04:41.515Z,61.74
2023-04-02T05:05:43.048Z,61.79
2023-04-02T05:07:06.137Z,61.77
2023-04-02T05:08:16.928Z,62.07
2023-04-02T05:09:33.771Z,62.66
2023-04-02T05:11:15.617Z,62.27
2023-04-02T05:12:39.821Z,61.93
2023-04-02T05:13:49.718Z,61.80
2023-04-02T05:14:52.303Z,62.23
2023-04-02T05:16:22.553Z,62.08
2023-04-02T05:17:47.998Z,62.25
2023-04-02T05:19:12.245Z,61.64
2023-04-02T05:20:34.461Z,62.84
2023-04-02T05:22:07.663Z,63.19
2023-04-02T05:23:29.717Z,63.17
2023-04-02T05:24:59.383Z,63.41
2023-04-02T05:26:12.075Z,63.88
2023-04-02T05:27:21.671Z,64.57
2023-04-02T05:28:31.941Z,63.82
2023-04-02T05:29:36.184Z,63.82
2023-04-02T05:30:46.806Z,64.51
2023-04-02T05:31:57.959Z,64.30
2023-04-02T05:33:05.173Z,63.82
2023-04-02T05:34:06.856Z,63.21
2023-04-02T05:35:14.926Z,63.50
2023-04-02T05:36:24.674Z,63.54
2023-04-02T05:37:27.432Z,63.50
2023-04-02T05:38:30.212Z,63.48
2023-04-02T05:39:32.718Z,63.11
2023-04-02T05:40:40.077Z,63.62
2023-04-02T05:41:45.912Z,63.44
2023-04-02T05:42:49.273Z,63.93
2023-04-02T05:43:51.735Z,64.04
2023-04-02T05:45:08.614Z,64.64
2023-04-02T05:46:16.943Z,63.47
2023-04-02T05:47:21.088Z,63.48
2023-04-02T05:48:44.022Z,64.28
2023-04-02T05:50:08.642Z,63.60
2023-04-02T05:51:16.498Z,63.61
2023-04-02T05:52:25.352Z,64.14
2023-04-02T05:54:05.959Z,63.79
2023-04-02T05:55:13.139Z,63.62
2023-04-02T05:56:24.790Z,64.09
2023-04-02T05:57:42.372Z,64.21
2023-04-02T05:58:53.195Z,64.18
2023-04-02T05:59:56.582Z,64.81
2023-04-02T06:01:04.365Z,64.52
2023-04-02T06:02:21.620Z,64.39
2023-04-02T06:04:06.998Z,64.30
2023-04-02T06:05:19.307Z,64.07
2023-04-02T06:06:43.552Z,63.83
2023-04-02T06:07:46.529Z,64.24
2023-04-02T06:08:49.905Z,63.44
2023-04-02T06:10:00.323Z,64.12
2023-04-02T06:11:11.502Z,64.23
2023-04-02T06:12:27.489Z,63.98
2023-04-02T06:13:29.000Z,63.94
2023-04-02T06:14:30.531Z,64.71
2023-04-02T06:15:32.802Z,64.58
2023-04-02T06:16:36.917Z,64.89
2023-04-02T06:17:58.629Z,64.76
2023-04-02T06:19:00.313Z,64.40
2023-04-02T06:20:01.839Z,64.47
2023-04-02T06:21:03.747Z,64.55
2023-04-02T06:22:33.142Z,64.53
2023-04-02T06:23:55.603Z,64.95
2023-04-02T06:25:25.377Z,65.55
2023-04-02T06:26:38.293Z,66.48
2023-04-02T06:27:40.057Z,65.77
2023-04-02T06:28:41.489Z,66.04
2023-04-02T06:29:43.229Z,65.99
2023-04-02T06:30:44.886Z,66.30
2023-04-02T06:31:52.152Z,66.25
2023-04-02T06:32:53.712Z,65.66
2023-04-02T06:33:56.406Z,66.00
2023-04-02T06:34:58.323Z,65.64
2023-04-02T06:35:59.887Z,65.33
2023-04-02T06:37:21.780Z,65.51
2023-04-02T06:38:28.128Z,65.12
2023-04-02T06:39:29.641Z,65.18
2023-04-02T06:40:34.374Z,65.05
2023-04-02T06:41:36.153Z,64.90
2023-04-02T06:42:38.037Z,64.95
2023-04-02T06:43:43.191Z,65.16
2023-04-02T06:44:44.713Z,65.15
2023-04-02T06:45:46.366Z,65.59
2023-04-02T06:46:51.743Z,66.07
2023-04-02T06:47:54.135Z,66.22
2023-04-02T06:48:59.562Z,66.55
2023-04-02T06:50:27.840Z,66.50
2023-04-02T06:51:29.364Z,66.33
2023-04-02T06:52:38.703Z,66.88
2023-04-02T06:53:44.458Z,65.96
2023-04-02T06:54:46.572Z,65.91
2023-04-02T06:55:52.456Z,66.06
2023-04-02T06:56:56.380Z,66.17
2023-04-02T06:57:58.021Z,66.08
2023-04-02T06:58:59.768Z,66.37
2023-04-02T07:00:01.336Z,66.15
2023-04-02T07:01:02.925Z,66.94
2023-04-02T07:02:34.842Z,66.31
2023-04-02T07:03:36.806Z,66.22
2023-04-02T07:04:38.370Z,66.70
2023-04-02T07:05:42.443Z,65.57
2023-04-02T07:06:44.560Z,66.36
2023-04-02T07:07:46.212Z,66.30
2023-04-02T07:08:48.000Z,66.67
2023-04-02T07:09:49.496Z,66.20
2023-04-02T07:10:51.381Z,66.54
2023-04-02T07:11:52.925Z,66.84
2023-04-02T07:12:54.424Z,66.66
2023-04-02T07:13:56.156Z,66.81
2023-04-02T07:14:57.718Z,66.49
2023-04-02T07:15:59.265Z,66.62
2023-04-02T07:17:00.973Z,66.88
2023-04-02T07:18:02.991Z,66.84
2023-04-02T07:19:05.116Z,66.08
2023-04-02T07:20:07.310Z,66.48
2023-04-02T07:21:08.821Z,65.82
2023-04-02T07:22:10.779Z,66.39
2023-04-02T07:23:14.850Z,65.63
2023-04-02T07:24:18.151Z,66.26
2023-04-02T07:25:19.731Z,66.32
2023-04-02T07:26:25.334Z,65.88
2023-04-02T07:27:28.028Z,66.40
2023-04-02T07:28:29.902Z,64.34
2023-04-02T07:29:31.576Z,65.00
2023-04-02T07:30:33.078Z,64.77
2023-04-02T07:31:34.612Z,65.02
2023-04-02T07:32:36.696Z,64.55
2023-04-02T07:33:39.011Z,64.48
2023-04-02T07:34:41.565Z,62.73
2023-04-02T07:35:43.335Z,63.67
2023-04-02T07:36:44.897Z,63.77
2023-04-02T07:37:46.636Z,64.49
2023-04-02T07:38:48.221Z,64.76
2023-04-02T07:39:49.705Z,64.65
2023-04-02T07:40:51.279Z,63.43
2023-04-02T07:41:57.219Z,64.02
2023-04-02T07:42:58.827Z,63.95
2023-04-02T07:44:00.393Z,64.69
2023-04-02T07:45:04.077Z,64.55
2023-04-02T07:46:07.101Z,64.09
2023-04-02T07:47:10.558Z,64.13
2023-04-02T07:48:12.989Z,65.15
2023-04-02T07:49:14.482Z,64.69
2023-04-02T07:50:16.105Z,65.45
2023-04-02T07:51:19.577Z,65.60
2023-04-02T07:52:21.755Z,65.58
2023-04-02T07:53:34.312Z,65.32
2023-04-02T07:54:35.940Z,64.93
2023-04-02T07:55:37.774Z,65.23
2023-04-02T07:56:39.336Z,64.73
2023-04-02T07:57:51.051Z,64.89
2023-04-02T07:58:52.678Z,64.67
2023-04-02T07:59:56.576Z,64.47
2023-04-02T08:00:58.709Z,64.13
2023-04-02T08:02:00.259Z,64.79
2023-04-02T08:03:01.866Z,65.03
2023-04-02T08:04:04.274Z,65.09
2023-04-02T08:05:06.747Z,65.16
2023-04-02T08:06:08.274Z,65.25
2023-04-02T08:07:10.119Z,64.78
2023-04-02T08:08:11.592Z,65.00
2023-04-02T08:09:14.179Z,65.04
2023-04-02T08:10:15.757Z,65.10
2023-04-02T08:11:17.437Z,64.69
2023-04-02T08:12:19.347Z,65.06
2023-04-02T08:13:20.939Z,65.41
2023-04-02T08:14:22.901Z,65.32
2023-04-02T08:15:24.436Z,65.18
2023-04-02T08:16:26.270Z,64.96
2023-04-02T08:17:31.811Z,64.86
2023-04-02T08:18:33.374Z,64.90
2023-04-02T08:19:44.440Z,65.28
2023-04-02T08:20:53.520Z,65.05
2023-04-02T08:21:55.727Z,64.76
2023-04-02T08:22:58.212Z,64.31
2023-04-02T08:23:59.712Z,64.29
2023-04-02T08:25:01.207Z,63.75
2023-04-02T08:26:02.821Z,64.08
2023-04-02T08:27:04.893Z,63.40
2023-04-02T08:28:06.486Z,62.93
2023-04-02T08:29:08.063Z,63.46
2023-04-02T08:30:11.518Z,63.70
2023-04-02T08:31:13.417Z,63.37
2023-04-02T08:32:16.528Z,63.26
2023-04-02T08:33:18.195Z,62.78
2023-04-02T08:34:19.712Z,62.92
2023-04-02T08:35:23.439Z,64.12
2023-04-02T08:36:31.061Z,64.63
2023-04-02T08:37:33.004Z,63.98
2023-04-02T08:38:34.826Z,64.33
2023-04-02T08:39:36.310Z,64.18
2023-04-02T08:40:42.460Z,64.61
2023-04-02T08:41:58.867Z,65.30
2023-04-02T08:43:33.940Z,63.93
2023-04-02T08:44:43.598Z,64.32
2023-04-02T08:46:06.632Z,63.91
2023-04-02T08:47:08.647Z,64.54
2023-04-02T08:48:10.921Z,64.24
2023-04-02T08:49:17.910Z,63.86
2023-04-02T08:50:34.528Z,63.58
2023-04-02T08:51:36.750Z,63.91
2023-04-02T08:52:39.006Z,63.75
2023-04-02T08:53:41.916Z,64.27
2023-04-02T08:54:43.655Z,63.58
2023-04-02T08:56:08.486Z,63.31
2023-04-02T08:57:31.989Z,63.86
2023-04-02T08:58:41.677Z,63.93
2023-04-02T08:59:43.442Z,64.45
2023-04-02T09:00:44.969Z,64.83
2023-04-02T09:01:52.249Z,65.18
2023-04-02T09:03:30.958Z,64.02
2023-04-02T09:04:32.543Z,63.65
2023-04-02T09:05:34.948Z,62.56
2023-04-02T09:06:37.292Z,62.55
2023-04-02T09:07:38.821Z,62.43
2023-04-02T09:08:40.671Z,62.91
2023-04-02T09:09:42.224Z,63.17
2023-04-02T09:10:49.909Z,63.91
2023-04-02T09:12:04.186Z,63.40
2023-04-02T09:13:17.155Z,63.33
2023-04-02T09:14:27.409Z,63.19
2023-04-02T09:15:34.165Z,62.52
2023-04-02T09:16:51.308Z,62.87
2023-04-02T09:18:19.854Z,62.91
2023-04-02T09:19:22.406Z,62.67
2023-04-02T09:20:27.673Z,62.69
2023-04-02T09:21:37.704Z,62.45
2023-04-02T09:22:39.847Z,61.91
2023-04-02T09:23:41.562Z,62.27
2023-04-02T09:24:43.088Z,61.91
2023-04-02T09:25:54.239Z,61.63
2023-04-02T09:27:02.789Z,61.47
2023-04-02T09:28:05.477Z,61.80
2023-04-02T09:29:12.756Z,61.39
2023-04-02T09:30:32.431Z,60.93
2023-04-02T09:31:39.137Z,61.79
2023-04-02T09:32:49.816Z,61.83
2023-04-02T09:33:51.626Z,62.74
2023-04-02T09:35:25.563Z,62.57
2023-04-02T09:36:40.430Z,62.19
2023-04-02T09:37:43.843Z,61.99
2023-04-02T09:39:18.560Z,61.08
2023-04-02T09:40:27.423Z,61.09
2023-04-02T09:41:29.633Z,60.75
2023-04-02T09:42:34.360Z,61.23
2023-04-02T09:43:39.364Z,60.72
2023-04-02T09:44:40.952Z,61.25
2023-04-02T09:45:43.070Z,61.62
2023-04-02T09:47:04.735Z,61.71
2023-04-02T09:48:26.081Z,61.88
2023-04-02T09:49:29.461Z,61.05
2023-04-02T09:50:32.153Z,60.47
2023-04-02T09:51:35.027Z,60.35
2023-04-02T09:52:36.643Z,60.80
2023-04-02T09:54:03.168Z,61.66
2023-04-02T09:55:26.317Z,61.26
2023-04-02T09:56:28.307Z,61.43
2023-04-02T09:57:31.492Z,61.62
2023-04-02T09:58:33.133Z,61.51
2023-04-02T09:59:34.700Z,61.52
2023-04-02T10:00:36.660Z,61.64
2023-04-02T10:01:41.651Z,61.49
2023-04-02T10:02:43.821Z,61.47
2023-04-02T10:03:46.526Z,61.68
2023-04-02T10:04:48.659Z,61.42
2023-04-02T10:06:12.358Z,62.11
2023-04-02T10:07:39.844Z,60.36
2023-04-02T10:08:42.472Z,59.16
2023-04-02T10:09:43.984Z,60.53
2023-04-02T10:10:50.803Z,60.95
2023-04-02T10:11:52.321Z,60.78
2023-04-02T10:13:11.949Z,61.46
2023-04-02T10:14:19.276Z,61.33
2023-04-02T10:15:22.796Z,61.20
2023-04-02T10:16:32.886Z,61.80
2023-04-02T10:17:35.948Z,62.26
2023-04-02T10:18:43.196Z,61.70
2023-04-02T10:19:49.797Z,61.09
2023-04-02T10:20:51.716Z,61.14
2023-04-02T10:21:54.504Z,61.57
2023-04-02T10:22:56.288Z,61.61
2023-04-02T10:23:59.384Z,61.52
2023-04-02T10:25:01.068Z,60.98
2023-04-02T10:26:28.508Z,60.60
2023-04-02T10:28:09.025Z,60.74
2023-04-02T10:29:44.694Z,61.33
2023-04-02T10:31:17.359Z,61.51
2023-04-02T10:32:22.126Z,60.97
2023-04-02T10:33:30.368Z,61.44
2023-04-02T10:34:36.218Z,61.20
2023-04-02T10:36:07.957Z,61.54
2023-04-02T10:37:34.164Z,62.26
2023-04-02T10:38:42.616Z,62.05
2023-04-02T10:39:53.870Z,62.24
2023-04-02T10:40:59.502Z,62.07
2023-04-02T10:42:30.400Z,60.88
2023-04-02T10:43:46.589Z,60.96
2023-04-02T10:45:01.864Z,61.33
2023-04-02T10:46:09.390Z,61.18
2023-04-02T10:47:31.066Z,61.10
2023-04-02T10:48:40.601Z,60.52
2023-04-02T10:50:00.608Z,59.73
2023-04-02T10:51:23.765Z,60.08
2023-04-02T10:52:42.542Z,60.03
2023-04-02T10:53:54.306Z,61.02
2023-04-02T10:55:01.855Z,60.36
2023-04-02T10:56:05.629Z,60.62
2023-04-02T10:57:14.525Z,59.93
2023-04-02T10:58:26.525Z,60.12
2023-04-02T10:59:30.404Z,60.23
2023-04-02T11:00:34.875Z,60.53
2023-04-02T11:01:36.407Z,60.08
2023-04-02T11:02:46.877Z,60.44
2023-04-02T11:03:50.703Z,58.98
2023-04-02T11:04:52.267Z,59.01
2023-04-02T11:05:56.060Z,59.75
2023-04-02T11:07:14.439Z,59.93
2023-04-02T11:08:23.942Z,60.46
2023-04-02T11:09:26.710Z,60.07
2023-04-02T11:10:30.810Z,59.98
2023-04-02T11:11:36.694Z,60.38
2023-04-02T11:12:42.204Z,60.40
2023-04-02T11:13:48.194Z,60.22
2023-04-02T11:14:49.858Z,59.83
2023-04-02T11:15:51.610Z,60.12
2023-04-02T11:16:54.173Z,59.70
2023-04-02T11:17:55.721Z,60.15
2023-04-02T11:19:24.597Z,58.64
2023-04-02T11:20:48.654Z,58.68
2023-04-02T11:21:58.537Z,58.46
2023-04-02T11:23:13.302Z,59.62
2023-04-02T11:24:33.594Z,60.77
2023-04-02T11:25:35.283Z,60.66
2023-04-02T11:26:41.467Z,60.33
2023-04-02T11:27:43.005Z,60.46
2023-04-02T11:28:44.514Z,61.23
2023-04-02T11:30:20.308Z,60.85
2023-04-02T11:31:21.981Z,61.13
2023-04-02T11:32:27.588Z,61.44
2023-04-02T11:33:39.196Z,62.27
2023-04-02T11:34:46.270Z,61.03
2023-04-02T11:35:48.567Z,61.09
2023-04-02T11:36:55.793Z,60.40
2023-04-02T11:38:09.469Z,61.89
2023-04-02T11:39:17.557Z,62.04
2023-04-02T11:40:19.176Z,61.08
2023-04-02T11:42:00.497Z,61.31
2023-04-02T11:43:32.717Z,59.82
2023-04-02T11:44:34.309Z,59.75
2023-04-02T11:45:52.632Z,60.64
2023-04-02T11:47:14.878Z,60.06
2023-04-02T11:48:16.289Z,60.09
2023-04-02T11:49:38.101Z,60.50
2023-04-02T11:50:41.007Z,59.84
2023-04-02T11:51:45.228Z,59.44
2023-04-02T11:52:46.665Z,58.75
2023-04-02T11:53:51.673Z,58.77
2023-04-02T11:55:18.595Z,59.53
2023-04-02T11:56:27.555Z,60.16
2023-04-02T11:57:37.362Z,60.11
2023-04-02T11:59:03.493Z,60.25
2023-04-02T12:00:36.343Z,60.68
2023-04-02T12:01:59.618Z,60.52
2023-04-02T12:03:19.881Z,60.58
2023-04-02T12:04:34.305Z,61.13
2023-04-02T12:05:46.345Z,61.49
2023-04-02T12:07:05.663Z,61.45
2023-04-02T12:08:23.992Z,60.91
2023-04-02T12:09:27.609Z,60.60
2023-04-02T12:10:32.589Z,60.94
2023-04-02T12:11:36.819Z,61.42
2023-04-02T12:12:38.607Z,60.60
2023-04-02T12:13:40.042Z,60.68
2023-04-02T12:14:45.617Z,59.29
2023-04-02T12:15:47.660Z,60.14
2023-04-02T12:16:49.699Z,59.57
2023-04-02T12:17:51.404Z,59.02
2023-04-02T12:18:54.482Z,59.25
2023-04-02T12:19:57.509Z,59.33
2023-04-02T12:20:59.030Z,59.89
2023-04-02T12:22:00.615Z,59.42
2023-04-02T12:23:02.314Z,59.19
2023-04-02T12:24:03.948Z,59.69
2023-04-02T12:25:26.988Z,59.43
2023-04-02T12:26:37.296Z,59.77
2023-04-02T12:27:42.439Z,59.82
2023-04-02T12:28:46.478Z,60.54
2023-04-02T12:29:49.517Z,59.47
2023-04-02T12:30:51.720Z,58.85
2023-04-02T12:31:54.375Z,59.08
2023-04-02T12:32:56.801Z,59.39
2023-04-02T12:33:58.409Z,59.07
2023-04-02T12:35:03.461Z,59.66
2023-04-02T12:36:11.759Z,60.19
2023-04-02T12:37:23.607Z,60.47
2023-04-02T12:38:30.052Z,60.81
2023-04-02T12:39:32.976Z,60.35
2023-04-02T12:40:34.794Z,60.48
2023-04-02T12:41:36.793Z,60.82
2023-04-02T12:42:38.322Z,59.75
2023-04-02T12:43:40.141Z,60.14
2023-04-02T12:44:48.561Z,59.34
2023-04-02T12:45:54.405Z,59.73
2023-04-02T12:46:56.193Z,59.54
2023-04-02T12:47:58.316Z,57.95
2023-04-02T12:49:07.974Z,57.77
2023-04-02T12:50:14.705Z,58.42
2023-04-02T12:51:17.556Z,58.35
2023-04-02T12:52:19.670Z,58.49
2023-04-02T12:53:29.674Z,58.41
2023-04-02T12:54:32.622Z,58.60
2023-04-02T12:55:34.202Z,57.59
2023-04-02T12:56:35.752Z,58.50
2023-04-02T12:57:38.963Z,57.48
2023-04-02T12:58:41.605Z,57.93
2023-04-02T12:59:43.617Z,57.96
2023-04-02T13:00:45.094Z,58.06
2023-04-02T13:01:57.136Z,58.24
2023-04-02T13:03:13.408Z,58.00
2023-04-02T13:04:15.202Z,57.78
2023-04-02T13:05:35.859Z,58.14
2023-04-02T13:06:37.522Z,57.88
2023-04-02T13:07:39.093Z,58.22
2023-04-02T13:08:43.762Z,58.60
2023-04-02T13:09:55.710Z,58.03
2023-04-02T13:10:59.382Z,58.17
2023-04-02T13:12:01.175Z,58.31
2023-04-02T13:13:03.193Z,58.39
2023-04-02T13:14:06.451Z,58.55
2023-04-02T13:15:09.231Z,58.01
2023-04-02T13:16:19.885Z,57.75
2023-04-02T13:17:43.677Z,57.93
2023-04-02T13:18:47.034Z,56.68
2023-04-02T13:19:48.554Z,57.22
2023-04-02T13:20:59.478Z,56.71
2023-04-02T13:22:01.907Z,57.08
2023-04-02T13:23:33.760Z,57.14
2023-04-02T13:24:35.293Z,56.59
2023-04-02T13:25:37.057Z,57.11
2023-04-02T13:26:38.565Z,57.61
2023-04-02T13:27:40.275Z,57.46
2023-04-02T13:28:42.207Z,57.76
2023-04-02T13:29:43.722Z,57.36
2023-04-02T13:30:46.146Z,56.96
2023-04-02T13:31:47.849Z,55.93
2023-04-02T13:32:49.552Z,55.10
2023-04-02T13:33:51.273Z,55.62
2023-04-02T13:34:52.847Z,56.58
2023-04-02T13:35:54.457Z,55.66
2023-04-02T13:36:57.317Z,56.63
2023-04-02T13:37:58.865Z,56.63
2023-04-02T13:39:00.726Z,56.77
2023-04-02T13:40:04.537Z,56.72
2023-04-02T13:41:06.393Z,56.79
2023-04-02T13:42:10.784Z,57.45
2023-04-02T13:43:17.678Z,57.01
2023-04-02T13:44:24.050Z,56.06
2023-04-02T13:45:32.268Z,56.35
2023-04-02T13:46:34.522Z,57.56
2023-04-02T13:47:36.667Z,57.27
2023-04-02T13:48:39.646Z,56.17
2023-04-02T13:49:41.363Z,56.13
2023-04-02T13:50:42.890Z,55.94
2023-04-02T13:51:50.606Z,56.73
2023-04-02T13:52:52.592Z,56.44
2023-04-02T13:53:55.477Z,56.32
2023-04-02T13:54:59.914Z,56.16
2023-04-02T13:56:01.839Z,55.68
2023-04-02T13:57:03.452Z,55.66
2023-04-02T13:58:05.434Z,56.08
2023-04-02T13:59:06.973Z,55.50
2023-04-02T14:00:08.955Z,55.30
2023-04-02T14:01:10.498Z,54.93
2023-04-02T14:02:17.152Z,55.24
2023-04-02T14:03:22.005Z,55.35
2023-04-02T14:04:26.163Z,56.01
2023-04-02T14:06:00.714Z,56.40
2023-04-02T14:07:20.154Z,54.54
2023-04-02T14:08:31.225Z,54.78
2023-04-02T14:09:57.395Z,54.43
2023-04-02T14:11:04.749Z,55.31
2023-04-02T14:12:15.582Z,55.40
2023-04-02T14:13:17.040Z,55.90
2023-04-02T14:14:25.025Z,56.02
2023-04-02T14:16:04.136Z,56.40
2023-04-02T14:17:05.568Z,56.65
2023-04-02T14:18:15.819Z,56.31
2023-04-02T14:19:28.037Z,56.36
2023-04-02T14:20:32.170Z,56.59
2023-04-02T14:21:58.134Z,56.69
2023-04-02T14:22:59.836Z,56.02
2023-04-02T14:24:37.136Z,56.01
2023-04-02T14:25:45.072Z,56.28
2023-04-02T14:26:52.118Z,56.31
2023-04-02T14:28:16.086Z,56.24
2023-04-02T14:29:23.696Z,56.38
2023-04-02T14:30:43.961Z,56.14
2023-04-02T14:31:51.586Z,55.07
2023-04-02T14:33:05.386Z,55.09
2023-04-02T14:34:39.311Z,54.56
2023-04-02T14:35:45.912Z,54.92
2023-04-02T14:37:04.627Z,54.44
2023-04-02T14:38:27.845Z,54.15
2023-04-02T14:39:42.865Z,54.13